Terminal Aerodrome Forecast
Issued by NWS Sterling, VA

Home | Current Version | Previous Version | Text Only | Print | Product List | Glossary On
Versions: 1 2 3 4 5 6 7 8 9 10 11 12 13 14 15 16 17 18 19 20 21 22
400
FTUS41 KLWX 202046 AAA
TAFBWI
TAF AMD
KBWI 202046Z 2021/2124 36008KT P6SM FEW200
     FM210500 07004KT P6SM FEW200
     FM211400 13005KT P6SM BKN200=

USA.gov is the U.S. government's official web portal to all federal, state and local government web resources and services.